Time;durP1;ratioP1;P1;durP2;ratioP2;P2;SDS_P1;SDS_P2;PMS_P1;PMS_P2;Temp;Humidity;BMP_temperature;BMP_pressure;BME280_temperature;BME280_humidity;BME280_pressure;Samples;Min_cycle;Max_cycle;Signal;HPM_P1;HPM_P2
2023/04/23 00:00:05;;;;;;;;;;;12.70;99.90;12.90;99207.00;;;;332883;29;83223;-91
2023/04/23 00:00:18;;;;;;;;;;;12.70;99.90;12.90;99211.00;;;;335595;28;96021;-92
2023/04/23 00:00:30;;;;;;;;;;;12.60;99.90;12.90;99220.00;;;;335430;29;83329;-91
2023/04/23 00:00:42;;;;;;;;;;;12.70;99.90;12.80;99212.00;;;;333167;29;95680;-91
2023/04/23 00:00:56;;;;;;;;;;;12.60;99.90;12.80;99209.00;;;;336549;28;83536;-92
2023/04/23 00:01:08;;;;;;;;;;;12.60;99.90;12.90;99202.00;;;;335724;28;94296;-91
2023/04/23 00:01:20;;;;;;;;;;;12.60;99.90;12.90;99215.00;;;;335196;29;83512;-91
2023/04/23 00:01:34;;;;;;;;;;;12.60;99.90;12.90;99208.00;;;;333268;29;94337;-92
2023/04/23 00:01:45;;;;;;;;;;;12.60;99.90;12.90;99209.00;;;;332629;29;83502;-91
2023/04/23 00:01:58;;;;;;;;;;;12.70;99.90;13.00;99206.00;;;;335685;28;94581;-92
2023/04/23 00:02:13;;;;;;;;;;;12.70;99.90;13.00;99206.00;;;;332865;29;82465;-92
2023/04/23 00:02:25;;;;;;;;;;;12.70;99.90;13.00;99210.00;;;;331870;29;95125;-91
2023/04/23 00:02:38;;;;;;;;;;;12.70;99.90;13.00;99206.00;;;;333828;29;82390;-91
2023/04/23 00:02:52;;;;;;;;;;;12.70;99.90;13.00;99208.00;;;;334376;29;95985;-90
2023/04/23 00:03:09;;;;;;;;;;;12.70;99.90;13.00;99210.00;;;;335155;29;83400;-93
2023/04/23 00:03:21;;;;;;;;;;;12.70;99.90;13.00;99207.00;;;;335933;28;94514;-92
2023/04/23 00:03:35;;;;;;;;;;;12.70;99.90;13.00;99208.00;;;;335451;29;83335;-91
2023/04/23 00:03:48;;;;;;;;;;;12.70;99.90;13.00;99209.00;;;;334647;29;94401;-92
2023/04/23 00:04:00;;;;;;;;;;;12.70;99.90;13.00;99210.00;;;;335180;29;83431;-91
2023/04/23 00:04:13;;;;;;;;;;;12.70;99.90;12.90;99203.00;;;;331934;29;94077;-92
2023/04/23 00:04:25;;;;;;;;;;;12.70;99.90;13.00;99208.00;;;;332868;29;83263;-92
2023/04/23 00:04:38;;;;;;;;;;;12.70;99.90;13.00;99211.00;;;;332041;29;94234;-92
2023/04/23 00:04:51;;;;;;;;;;;12.70;99.90;13.00;99209.00;;;;332801;29;82516;-91
2023/04/23 00:05:05;;;;;;;;;;;12.70;99.90;13.00;99211.00;;;;331904;29;95523;-92
2023/04/23 00:05:17;;;;;;;;;;;12.70;99.90;12.90;99216.00;;;;335489;29;83273;-92
2023/04/23 00:05:29;;;;;;;;;;;12.70;99.90;13.00;99211.00;;;;334678;29;95555;-92
2023/04/23 00:05:41;;;;;;;;;;;12.70;99.90;13.00;99216.00;;;;333570;29;83653;-92
2023/04/23 00:05:54;;;;;;;;;;;12.70;99.90;13.00;99218.00;;;;333097;29;95656;-93
2023/04/23 00:06:09;;;;;;;;;;;12.70;99.90;13.00;99214.00;;;;334101;29;83178;-93
2023/04/23 00:06:25;;;;;;;;;;;12.70;99.90;13.00;99216.00;;;;333352;29;94267;-92
2023/04/23 00:06:37;;;;;;;;;;;12.70;99.90;13.10;99211.00;;;;335196;29;83496;-92
2023/04/23 00:06:49;;;;;;;;;;;12.70;99.90;13.00;99215.00;;;;336135;28;93189;-90
2023/04/23 00:07:02;;;;;;;;;;;12.70;99.90;13.00;99214.00;;;;337761;28;82589;-91
2023/04/23 00:07:14;;;;;;;;;;;12.70;99.90;13.00;99208.00;;;;331819;29;95621;-92
2023/04/23 00:07:26;;;;;;;;;;;12.70;99.90;13.00;99211.00;;;;335215;29;83501;-92
2023/04/23 00:07:38;;;;;;;;;;;12.70;99.90;13.00;99204.00;;;;335872;28;95587;-92
2023/04/23 00:07:50;;;;;;;;;;;12.70;99.90;13.00;99209.00;;;;335437;29;83256;-92
2023/04/23 00:08:02;;;;;;;;;;;12.70;99.90;13.10;99212.00;;;;334563;29;93670;-92
2023/04/23 00:08:14;;;;;;;;;;;12.80;99.90;13.10;99211.00;;;;336659;28;82572;-92
2023/04/23 00:08:26;;;;;;;;;;;12.70;99.90;13.10;99207.00;;;;335643;28;95718;-92
2023/04/23 00:08:39;;;;;;;;;;;12.70;99.90;13.10;99204.00;;;;332851;29;83413;-91
2023/04/23 00:08:52;;;;;;;;;;;12.70;99.90;13.00;99208.00;;;;334640;29;94995;-91
2023/04/23 00:09:05;;;;;;;;;;;12.70;99.90;13.00;99215.00;;;;335138;28;83625;-91
2023/04/23 00:09:17;;;;;;;;;;;12.70;99.90;13.10;99212.00;;;;334304;29;93395;-92
2023/04/23 00:09:30;;;;;;;;;;;12.80;99.90;13.10;99211.00;;;;335490;29;82314;-93
2023/04/23 00:09:42;;;;;;;;;;;12.80;99.90;13.10;99207.00;;;;333207;29;95113;-91
2023/04/23 00:09:54;;;;;;;;;;;12.80;99.90;13.10;99203.00;;;;335470;29;82459;-92
2023/04/23 00:10:07;;;;;;;;;;;12.80;99.90;13.10;99208.00;;;;334637;29;94068;-92
2023/04/23 00:10:19;;;;;;;;;;;12.80;99.90;13.10;99208.00;;;;335161;29;83319;-93
2023/04/23 00:10:31;;;;;;;;;;;12.80;99.90;13.10;99212.00;;;;332038;29;94576;-92
2023/04/23 00:10:43;;;;;;;;;;;12.80;99.90;13.00;99205.00;;;;332769;29;83327;-92
2023/04/23 00:10:55;;;;;;;;;;;12.80;99.90;13.00;99208.00;;;;335660;28;95459;-92
2023/04/23 00:11:08;;;;;;;;;;;12.80;99.90;13.10;99198.00;;;;334064;29;83353;-92
2023/04/23 00:11:20;;;;;;;;;;;12.80;99.90;13.10;99206.00;;;;334420;29;95935;-93
2023/04/23 00:11:32;;;;;;;;;;;12.80;99.90;13.20;99199.00;;;;336500;28;82418;-91
2023/04/23 00:11:44;;;;;;;;;;;12.80;99.90;13.20;99203.00;;;;334544;29;97100;-92
2023/04/23 00:11:57;;;;;;;;;;;12.80;99.90;13.30;99195.00;;;;335473;29;83166;-92
2023/04/23 00:12:09;;;;;;;;;;;12.80;99.90;13.30;99199.00;;;;334405;29;95537;-92
2023/04/23 00:12:21;;;;;;;;;;;12.80;99.90;13.20;99196.00;;;;333853;29;83517;-92
2023/04/23 00:12:33;;;;;;;;;;;12.90;99.90;13.20;99202.00;;;;333224;29;95195;-92
2023/04/23 00:12:45;;;;;;;;;;;12.90;99.90;13.10;99200.00;;;;332668;29;82650;-92
2023/04/23 00:12:57;;;;;;;;;;;12.80;99.90;13.30;99197.00;;;;332125;29;93599;-92
2023/04/23 00:13:10;;;;;;;;;;;12.90;99.90;13.30;99203.00;;;;335589;29;83276;-92
2023/04/23 00:13:22;;;;;;;;;;;12.90;99.90;13.30;99198.00;;;;334652;29;95548;-92
2023/04/23 00:13:34;;;;;;;;;;;12.80;99.90;13.20;99194.00;;;;332990;29;83304;-92
2023/04/23 00:13:48;;;;;;;;;;;12.90;99.90;13.10;99193.00;;;;333561;29;93590;-92
2023/04/23 00:14:00;;;;;;;;;;;12.90;99.90;13.10;99197.00;;;;334399;29;82429;-92
2023/04/23 00:14:12;;;;;;;;;;;12.90;99.90;13.10;99195.00;;;;334641;29;95843;-92
2023/04/23 00:14:24;;;;;;;;;;;12.90;99.90;13.20;99193.00;;;;334353;29;83095;-92
2023/04/23 00:14:36;;;;;;;;;;;12.90;99.90;13.30;99189.00;;;;332300;29;93198;-92
2023/04/23 00:14:48;;;;;;;;;;;12.90;99.90;13.20;99193.00;;;;334403;29;83284;-92
2023/04/23 00:15:00;;;;;;;;;;;12.90;99.90;13.30;99187.00;;;;333593;29;92409;-92
2023/04/23 00:15:12;;;;;;;;;;;12.90;99.90;13.30;99195.00;;;;334159;29;83550;-92
2023/04/23 00:15:25;;;;;;;;;;;12.90;99.90;13.20;99193.00;;;;332182;29;93038;-92
2023/04/23 00:15:37;;;;;;;;;;;12.90;99.90;13.20;99194.00;;;;334011;29;83587;-91
2023/04/23 00:15:49;;;;;;;;;;;12.90;99.90;13.20;99190.00;;;;333523;29;94691;-92
2023/04/23 00:16:01;;;;;;;;;;;12.90;99.90;13.20;99183.00;;;;334447;29;82366;-92
2023/04/23 00:16:13;;;;;;;;;;;12.90;99.90;13.10;99191.00;;;;333401;29;97172;-92
2023/04/23 00:16:26;;;;;;;;;;;12.90;99.90;13.10;99187.00;;;;336755;28;82562;-92
2023/04/23 00:16:38;;;;;;;;;;;12.90;99.90;13.10;99188.00;;;;334805;29;94398;-92
2023/04/23 00:16:51;;;;;;;;;;;12.90;99.90;13.10;99187.00;;;;335558;29;83431;-91
2023/04/23 00:17:03;;;;;;;;;;;12.90;99.90;13.10;99193.00;;;;334368;29;91908;-92
2023/04/23 00:17:14;;;;;;;;;;;12.90;99.90;13.10;99191.00;;;;335596;29;83466;-92
2023/04/23 00:17:26;;;;;;;;;;;12.90;99.90;13.10;99188.00;;;;334800;29;94220;-92
2023/04/23 00:17:38;;;;;;;;;;;12.90;99.90;13.10;99191.00;;;;335447;29;83461;-92
2023/04/23 00:17:50;;;;;;;;;;;12.90;99.90;13.10;99180.00;;;;332286;29;95513;-92
2023/04/23 00:18:02;;;;;;;;;;;12.90;99.90;13.10;99188.00;;;;334291;29;83429;-92
2023/04/23 00:18:15;;;;;;;;;;;12.90;99.90;13.10;99190.00;;;;336034;28;93599;-92
2023/04/23 00:18:28;;;;;;;;;;;12.90;99.90;13.30;99185.00;;;;335260;29;83481;-92
2023/04/23 00:18:40;;;;;;;;;;;12.90;99.90;13.40;99188.00;;;;334891;29;93242;-92
2023/04/23 00:18:52;;;;;;;;;;;12.90;99.90;13.40;99188.00;;;;334341;29;83244;-92
2023/04/23 00:19:04;;;;;;;;;;;13.00;99.90;13.50;99185.00;;;;334631;29;95676;-92
2023/04/23 00:19:16;;;;;;;;;;;13.00;99.90;13.40;99193.00;;;;335597;29;83447;-92
2023/04/23 00:19:27;;;;;;;;;;;13.00;99.90;13.30;99189.00;;;;333589;29;94164;-92
2023/04/23 00:19:39;;;;;;;;;;;13.00;99.90;13.30;99185.00;;;;334222;29;83402;-92
2023/04/23 00:19:52;;;;;;;;;;;13.00;99.90;13.20;99193.00;;;;334570;29;96773;-92
2023/04/23 00:20:05;;;;;;;;;;;13.00;99.90;13.20;99184.00;;;;335227;29;82620;-92
2023/04/23 00:20:17;;;;;;;;;;;12.90;99.90;13.20;99176.00;;;;334816;29;94809;-92
2023/04/23 00:20:29;;;;;;;;;;;13.00;99.90;13.20;99188.00;;;;335620;29;83321;-93
2023/04/23 00:20:41;;;;;;;;;;;12.90;99.90;13.20;99185.00;;;;332358;29;93013;-92
2023/04/23 00:20:53;;;;;;;;;;;13.00;99.90;13.30;99181.00;;;;334324;29;82449;-92
2023/04/23 00:21:05;;;;;;;;;;;13.00;99.90;13.30;99182.00;;;;334885;29;92851;-91
2023/04/23 00:21:16;;;;;;;;;;;13.00;99.90;13.30;99186.00;;;;335332;29;82612;-91
2023/04/23 00:21:28;;;;;;;;;;;13.00;99.90;13.30;99191.00;;;;333635;29;94201;-92
2023/04/23 00:21:40;;;;;;;;;;;13.00;99.90;13.30;99183.00;;;;335467;29;82573;-92
2023/04/23 00:21:52;;;;;;;;;;;13.00;99.90;13.30;99185.00;;;;334646;29;96173;-92
2023/04/23 00:22:05;;;;;;;;;;;13.00;99.90;13.30;99184.00;;;;334246;29;82582;-92
2023/04/23 00:22:16;;;;;;;;;;;13.00;99.90;13.30;99183.00;;;;334947;29;92754;-92
2023/04/23 00:22:28;;;;;;;;;;;13.00;99.90;13.30;99195.00;;;;335643;29;83371;-92
2023/04/23 00:22:40;;;;;;;;;;;13.00;99.90;13.20;99182.00;;;;333300;29;95839;-93
2023/04/23 00:22:52;;;;;;;;;;;13.00;99.90;13.10;99185.00;;;;335197;29;82556;-92
2023/04/23 00:23:04;;;;;;;;;;;13.00;99.90;13.20;99180.00;;;;333587;29;94679;-92
2023/04/23 00:23:16;;;;;;;;;;;13.00;99.90;13.30;99177.00;;;;334277;29;83408;-93
2023/04/23 00:23:28;;;;;;;;;;;13.00;99.90;13.30;99186.00;;;;334646;29;95079;-91
2023/04/23 00:23:40;;;;;;;;;;;13.00;99.90;13.40;99185.00;;;;335474;29;82585;-92
2023/04/23 00:23:51;;;;;;;;;;;13.00;99.90;13.30;99182.00;;;;336175;28;94404;-92
2023/04/23 00:24:03;;;;;;;;;;;13.00;99.90;13.20;99180.00;;;;334323;29;83119;-92
2023/04/23 00:24:15;;;;;;;;;;;13.00;99.90;13.10;99178.00;;;;333306;29;93657;-92
2023/04/23 00:24:27;;;;;;;;;;;13.00;99.90;13.20;99183.00;;;;336985;28;82370;-92
2023/04/23 00:24:39;;;;;;;;;;;13.00;99.90;13.30;99181.00;;;;335852;28;95614;-91
2023/04/23 00:24:51;;;;;;;;;;;13.00;99.90;13.30;99170.00;;;;334339;29;82361;-92
2023/04/23 00:25:03;;;;;;;;;;;13.00;99.90;13.30;99186.00;;;;334873;29;94686;-92
2023/04/23 00:25:15;;;;;;;;;;;13.00;99.90;13.30;99186.00;;;;336715;28;82594;-92
2023/04/23 00:25:27;;;;;;;;;;;13.00;99.90;13.30;99185.00;;;;334616;29;94482;-92
2023/04/23 00:25:39;;;;;;;;;;;13.00;99.90;13.30;99180.00;;;;335416;29;82582;-92
2023/04/23 00:25:51;;;;;;;;;;;13.00;99.90;13.20;99180.00;;;;334801;29;94407;-92
2023/04/23 00:26:03;;;;;;;;;;;13.00;99.90;13.30;99181.00;;;;335633;29;83388;-91
2023/04/23 00:26:17;;;;;;;;;;;13.00;99.90;13.20;99179.00;;;;334800;29;92998;-91
2023/04/23 00:26:29;;;;;;;;;;;13.00;99.90;13.20;99184.00;;;;336670;28;83431;-92
2023/04/23 00:26:41;;;;;;;;;;;13.00;99.90;13.10;99186.00;;;;333621;29;93371;-92
2023/04/23 00:26:52;;;;;;;;;;;13.00;99.90;13.10;99189.00;;;;334203;29;83472;-92
2023/04/23 00:27:05;;;;;;;;;;;13.00;99.90;13.20;99184.00;;;;334861;29;94468;-92
2023/04/23 00:27:17;;;;;;;;;;;13.00;99.90;13.30;99180.00;;;;335442;29;82548;-92
2023/04/23 00:27:28;;;;;;;;;;;13.00;99.90;13.20;99173.00;;;;334873;29;94413;-92
2023/04/23 00:27:40;;;;;;;;;;;13.00;99.90;13.10;99182.00;;;;332925;29;82555;-92
2023/04/23 00:27:52;;;;;;;;;;;13.00;99.90;13.10;99177.00;;;;332324;29;93631;-92
2023/04/23 00:28:04;;;;;;;;;;;13.00;99.90;13.10;99180.00;;;;335482;29;82699;-91
2023/04/23 00:28:16;;;;;;;;;;;13.00;99.90;13.00;99177.00;;;;333245;29;94553;-92
2023/04/23 00:28:29;;;;;;;;;;;13.00;99.90;13.10;99169.00;;;;336908;28;83560;-92
2023/04/23 00:28:41;;;;;;;;;;;13.00;99.90;13.10;99176.00;;;;334907;29;92704;-91
2023/04/23 00:28:53;;;;;;;;;;;13.00;99.90;13.00;99180.00;;;;334231;29;82594;-92
2023/04/23 00:29:04;;;;;;;;;;;12.90;99.90;13.00;99177.00;;;;334799;29;94855;-92
2023/04/23 00:29:16;;;;;;;;;;;13.00;99.90;13.10;99175.00;;;;332905;29;83513;-92
2023/04/23 00:29:28;;;;;;;;;;;12.90;99.90;13.20;99176.00;;;;333354;29;95900;-92
2023/04/23 00:29:42;;;;;;;;;;;13.00;99.90;13.20;99174.00;;;;336663;28;82553;-92
2023/04/23 00:29:53;;;;;;;;;;;13.00;99.90;13.30;99167.00;;;;334650;29;95578;-92
2023/04/23 00:30:06;;;;;;;;;;;13.00;99.90;13.30;99175.00;;;;332784;29;83498;-93
2023/04/23 00:30:18;;;;;;;;;;;13.00;99.90;13.40;99177.00;;;;333566;29;92213;-92
2023/04/23 00:30:29;;;;;;;;;;;13.00;99.90;13.30;99169.00;;;;335490;28;83357;-92
2023/04/23 00:30:41;;;;;;;;;;;13.00;99.90;13.10;99171.00;;;;335998;28;95476;-92
2023/04/23 00:30:53;;;;;;;;;;;13.00;99.90;13.20;99182.00;;;;335396;29;83518;-92
2023/04/23 00:31:06;;;;;;;;;;;13.00;99.90;13.30;99181.00;;;;334890;29;94127;-92
2023/04/23 00:31:18;;;;;;;;;;;13.00;99.90;13.30;99175.00;;;;335703;29;82450;-92
2023/04/23 00:31:30;;;;;;;;;;;13.00;99.90;13.30;99187.00;;;;333516;29;94285;-92
2023/04/23 00:31:42;;;;;;;;;;;13.00;99.90;13.20;99180.00;;;;335603;28;82398;-92
2023/04/23 00:31:54;;;;;;;;;;;13.00;99.90;13.30;99177.00;;;;334597;29;95629;-92
2023/04/23 00:32:06;;;;;;;;;;;13.00;99.90;13.20;99169.00;;;;335660;29;83443;-92
2023/04/23 00:32:18;;;;;;;;;;;13.00;99.90;13.20;99177.00;;;;335765;28;94285;-91
2023/04/23 00:32:30;;;;;;;;;;;13.00;99.90;13.20;99175.00;;;;335437;28;82671;-92
2023/04/23 00:32:43;;;;;;;;;;;13.00;99.90;13.20;99176.00;;;;334916;29;94209;-91
2023/04/23 00:32:55;;;;;;;;;;;13.00;99.90;13.20;99181.00;;;;334386;29;82429;-92
2023/04/23 00:33:07;;;;;;;;;;;13.00;99.90;13.30;99178.00;;;;334939;29;94085;-92
2023/04/23 00:33:19;;;;;;;;;;;13.00;99.90;13.30;99172.00;;;;334287;29;83118;-91
2023/04/23 00:33:30;;;;;;;;;;;13.00;99.90;13.20;99180.00;;;;332130;29;94285;-90
2023/04/23 00:33:42;;;;;;;;;;;13.00;99.90;13.20;99189.00;;;;334141;29;83601;-92
2023/04/23 00:33:54;;;;;;;;;;;13.00;99.90;13.20;99180.00;;;;334540;29;96959;-91
2023/04/23 00:34:06;;;;;;;;;;;13.00;99.90;13.20;99176.00;;;;334239;29;83527;-92
2023/04/23 00:34:18;;;;;;;;;;;13.00;99.90;13.20;99190.00;;;;334592;29;94709;-91
2023/04/23 00:34:31;;;;;;;;;;;13.00;99.90;13.20;99185.00;;;;335400;28;82591;-92
2023/04/23 00:34:47;;;;;;;;;;;13.00;99.90;13.20;99186.00;;;;333701;29;92553;-92
2023/04/23 00:34:59;;;;;;;;;;;13.00;99.90;13.20;99183.00;;;;335404;29;83570;-91
2023/04/23 00:35:11;;;;;;;;;;;13.00;99.90;13.20;99190.00;;;;334888;29;94641;-93
2023/04/23 00:35:23;;;;;;;;;;;13.00;99.90;13.20;99183.00;;;;336695;28;83505;-92
2023/04/23 00:35:35;;;;;;;;;;;13.00;99.90;13.20;99185.00;;;;333170;29;93519;-92
2023/04/23 00:35:47;;;;;;;;;;;13.00;99.90;13.20;99184.00;;;;335648;29;83373;-92
2023/04/23 00:35:59;;;;;;;;;;;13.00;99.90;13.20;99183.00;;;;334633;29;95465;-91
2023/04/23 00:36:11;;;;;;;;;;;13.00;99.90;13.20;99180.00;;;;336982;28;82595;-91
2023/04/23 00:36:23;;;;;;;;;;;13.00;99.90;13.20;99188.00;;;;332031;29;94409;-91
2023/04/23 00:36:34;;;;;;;;;;;13.00;99.90;13.20;99184.00;;;;335131;29;83523;-92
2023/04/23 00:36:46;;;;;;;;;;;13.00;99.90;13.20;99181.00;;;;334898;29;93112;-92
2023/04/23 00:36:58;;;;;;;;;;;13.00;99.90;13.20;99186.00;;;;335567;29;83427;-92
2023/04/23 00:37:10;;;;;;;;;;;13.00;99.90;13.10;99178.00;;;;334824;29;96306;-92
2023/04/23 00:37:22;;;;;;;;;;;13.00;99.90;13.10;99187.00;;;;334231;29;83387;-92
2023/04/23 00:37:34;;;;;;;;;;;13.00;99.90;13.10;99183.00;;;;334541;29;94623;-92
2023/04/23 00:37:46;;;;;;;;;;;13.00;99.90;13.00;99182.00;;;;336962;28;82488;-93
2023/04/23 00:37:58;;;;;;;;;;;13.00;99.90;13.00;99188.00;;;;333470;29;97384;-93
2023/04/23 00:38:10;;;;;;;;;;;12.90;99.90;12.90;99185.00;;;;336654;28;82516;-92
2023/04/23 00:38:21;;;;;;;;;;;12.90;99.90;12.90;99185.00;;;;335753;28;93601;-90
2023/04/23 00:38:33;;;;;;;;;;;12.90;99.90;12.90;99187.00;;;;334342;29;83373;-91
2023/04/23 00:38:45;;;;;;;;;;;12.90;99.90;12.90;99178.00;;;;336275;28;93009;-92
2023/04/23 00:38:57;;;;;;;;;;;12.90;99.90;12.90;99179.00;;;;336645;28;83339;-91
2023/04/23 00:39:10;;;;;;;;;;;12.80;99.90;12.90;99181.00;;;;335963;28;94394;-92
2023/04/23 00:39:22;;;;;;;;;;;12.80;99.90;12.90;99184.00;;;;335435;28;83633;-92
2023/04/23 00:39:36;;;;;;;;;;;12.80;99.90;12.90;99189.00;;;;331975;29;95238;-92
2023/04/23 00:39:48;;;;;;;;;;;12.80;99.90;12.90;99190.00;;;;333098;29;82441;-92
2023/04/23 00:40:01;;;;;;;;;;;12.80;99.90;12.90;99181.00;;;;333550;29;93961;-92
2023/04/23 00:40:12;;;;;;;;;;;12.80;99.90;12.90;99188.00;;;;334169;29;82464;-92
2023/04/23 00:40:24;;;;;;;;;;;12.80;99.90;12.90;99185.00;;;;332273;29;94071;-92
2023/04/23 00:40:36;;;;;;;;;;;12.80;99.90;13.00;99184.00;;;;334163;29;82585;-92
2023/04/23 00:40:48;;;;;;;;;;;12.80;99.90;13.00;99183.00;;;;333605;29;94288;-92
2023/04/23 00:41:00;;;;;;;;;;;12.80;99.90;13.00;99186.00;;;;334362;29;83174;-92
2023/04/23 00:41:12;;;;;;;;;;;12.80;99.90;13.00;99191.00;;;;333536;29;92240;-93
2023/04/23 00:41:24;;;;;;;;;;;12.80;99.90;13.00;99184.00;;;;334367;29;83387;-92
2023/04/23 00:41:36;;;;;;;;;;;12.80;99.90;13.00;99182.00;;;;332194;29;94676;-91
2023/04/23 00:41:48;;;;;;;;;;;12.80;99.90;13.00;99179.00;;;;334384;29;82507;-91
2023/04/23 00:42:05;;;;;;;;;;;12.80;99.90;13.00;99187.00;;;;334808;29;95619;-92
2023/04/23 00:42:17;;;;;;;;;;;12.80;99.90;13.00;99182.00;;;;333052;29;83386;-92
2023/04/23 00:42:29;;;;;;;;;;;12.80;99.90;13.00;99186.00;;;;333381;29;95096;-92
2023/04/23 00:42:41;;;;;;;;;;;12.80;99.90;13.00;99183.00;;;;335755;29;83112;-92
2023/04/23 00:42:53;;;;;;;;;;;12.80;99.90;13.00;99187.00;;;;333208;29;92244;-92
2023/04/23 00:43:06;;;;;;;;;;;12.80;99.90;13.00;99181.00;;;;332952;29;82590;-92
2023/04/23 00:43:18;;;;;;;;;;;12.80;99.90;13.00;99182.00;;;;333741;29;91723;-92
2023/04/23 00:43:30;;;;;;;;;;;12.80;99.90;13.00;99186.00;;;;335526;29;83520;-92
2023/04/23 00:43:42;;;;;;;;;;;12.80;99.90;13.00;99181.00;;;;332130;29;95643;-92
2023/04/23 00:43:56;;;;;;;;;;;12.80;99.90;13.00;99183.00;;;;331920;29;83280;-92
2023/04/23 00:44:08;;;;;;;;;;;12.80;99.90;13.00;99182.00;;;;332194;29;95440;-92
2023/04/23 00:44:19;;;;;;;;;;;12.80;99.90;13.00;99188.00;;;;333053;29;82558;-91
2023/04/23 00:44:31;;;;;;;;;;;12.80;99.90;12.90;99188.00;;;;332250;29;93202;-92
2023/04/23 00:44:43;;;;;;;;;;;12.80;99.90;12.90;99191.00;;;;331778;29;83289;-92
2023/04/23 00:44:55;;;;;;;;;;;12.80;99.90;12.90;99179.00;;;;333302;29;95978;-91
2023/04/23 00:45:07;;;;;;;;;;;12.80;99.90;12.90;99178.00;;;;335458;29;83524;-92
2023/04/23 00:45:19;;;;;;;;;;;12.80;99.90;12.90;99179.00;;;;333729;29;93417;-92
2023/04/23 00:45:32;;;;;;;;;;;12.80;99.90;12.90;99185.00;;;;335476;29;83496;-91
2023/04/23 00:45:44;;;;;;;;;;;12.80;99.90;12.90;99183.00;;;;333641;29;94084;-92
2023/04/23 00:45:56;;;;;;;;;;;12.80;99.90;12.90;99179.00;;;;334511;29;82399;-92
2023/04/23 00:46:08;;;;;;;;;;;12.80;99.90;12.90;99186.00;;;;334520;29;96588;-92
2023/04/23 00:46:19;;;;;;;;;;;12.70;99.90;12.90;99183.00;;;;334284;29;83261;-92
2023/04/23 00:46:31;;;;;;;;;;;12.70;99.90;12.90;99184.00;;;;333661;29;93898;-92
2023/04/23 00:46:43;;;;;;;;;;;12.80;99.90;12.90;99186.00;;;;333873;29;83556;-92
2023/04/23 00:46:55;;;;;;;;;;;12.80;99.90;13.00;99183.00;;;;334726;29;94864;-92
2023/04/23 00:47:07;;;;;;;;;;;12.80;99.90;13.00;99179.00;;;;335632;29;83114;-92
2023/04/23 00:47:19;;;;;;;;;;;12.80;99.90;13.00;99176.00;;;;333351;29;95891;-92
2023/04/23 00:47:31;;;;;;;;;;;12.80;99.90;13.00;99175.00;;;;332980;29;83579;-92
2023/04/23 00:47:43;;;;;;;;;;;12.80;99.90;13.10;99176.00;;;;334737;29;94089;-92
2023/04/23 00:47:55;;;;;;;;;;;12.80;99.90;13.00;99179.00;;;;335473;28;82590;-92
2023/04/23 00:48:07;;;;;;;;;;;12.80;99.90;13.00;99178.00;;;;332230;29;94811;-92
2023/04/23 00:48:19;;;;;;;;;;;12.80;99.90;13.00;99181.00;;;;334022;29;83665;-92
2023/04/23 00:48:32;;;;;;;;;;;12.80;99.90;13.00;99181.00;;;;333422;29;93576;-92
2023/04/23 00:48:45;;;;;;;;;;;12.80;99.90;13.00;99181.00;;;;334271;29;82567;-92
2023/04/23 00:48:57;;;;;;;;;;;12.80;99.90;13.00;99178.00;;;;333398;29;92998;-92
2023/04/23 00:49:09;;;;;;;;;;;12.80;99.90;13.00;99178.00;;;;334323;29;83430;-92
2023/04/23 00:49:20;;;;;;;;;;;12.80;99.90;12.90;99181.00;;;;332090;29;94366;-93
2023/04/23 00:49:33;;;;;;;;;;;12.80;99.90;13.00;99173.00;;;;334264;29;83168;-92
2023/04/23 00:49:45;;;;;;;;;;;12.80;99.90;13.00;99178.00;;;;332055;29;94846;-92
2023/04/23 00:49:57;;;;;;;;;;;12.80;99.90;13.00;99171.00;;;;334338;29;83294;-91
2023/04/23 00:50:09;;;;;;;;;;;12.80;99.90;13.00;99178.00;;;;333556;29;96327;-92
2023/04/23 00:50:20;;;;;;;;;;;12.80;99.90;13.00;99175.00;;;;332985;29;82393;-92
2023/04/23 00:50:32;;;;;;;;;;;12.80;99.90;13.00;99175.00;;;;333551;29;93417;-92
2023/04/23 00:50:45;;;;;;;;;;;12.80;99.90;13.00;99167.00;;;;335594;29;83321;-92
2023/04/23 00:50:59;;;;;;;;;;;12.80;99.90;13.00;99176.00;;;;334517;29;95008;-93
2023/04/23 00:51:11;;;;;;;;;;;12.80;99.90;13.00;99175.00;;;;333140;29;83300;-92
2023/04/23 00:51:23;;;;;;;;;;;12.80;99.90;13.00;99173.00;;;;332185;29;96023;-91
2023/04/23 00:51:35;;;;;;;;;;;12.80;99.90;13.00;99167.00;;;;334203;29;82428;-91
2023/04/23 00:51:47;;;;;;;;;;;12.80;99.90;13.10;99171.00;;;;334779;29;94280;-92
2023/04/23 00:52:00;;;;;;;;;;;12.80;99.90;13.10;99174.00;;;;334316;29;83331;-92
2023/04/23 00:52:11;;;;;;;;;;;12.80;99.90;13.10;99171.00;;;;334488;29;96159;-92
2023/04/23 00:52:23;;;;;;;;;;;12.80;99.90;13.10;99171.00;;;;335601;29;82636;-92
2023/04/23 00:52:35;;;;;;;;;;;12.80;99.90;13.20;99158.00;;;;333301;29;94756;-92
2023/04/23 00:52:47;;;;;;;;;;;12.80;99.90;13.20;99172.00;;;;334157;29;83499;-92
2023/04/23 00:52:59;;;;;;;;;;;12.80;99.90;13.20;99169.00;;;;333492;29;94576;-93
2023/04/23 00:53:11;;;;;;;;;;;12.80;99.90;13.20;99170.00;;;;334365;29;82485;-92
2023/04/23 00:53:23;;;;;;;;;;;12.80;99.90;13.10;99175.00;;;;336045;28;94583;-92
2023/04/23 00:53:34;;;;;;;;;;;12.80;99.90;13.10;99178.00;;;;334562;29;83426;-92
2023/04/23 00:53:46;;;;;;;;;;;12.80;99.90;13.20;99166.00;;;;330794;29;95447;-92
2023/04/23 00:53:58;;;;;;;;;;;12.80;99.90;13.20;99171.00;;;;332993;29;83427;-93
2023/04/23 00:54:10;;;;;;;;;;;12.80;99.90;13.20;99172.00;;;;334509;29;97059;-92
2023/04/23 00:54:22;;;;;;;;;;;12.80;99.90;13.20;99168.00;;;;335505;29;82730;-92
2023/04/23 00:54:34;;;;;;;;;;;12.90;99.90;13.20;99170.00;;;;334506;29;95696;-92
2023/04/23 00:54:46;;;;;;;;;;;12.80;99.90;13.20;99169.00;;;;334277;29;82613;-92
2023/04/23 00:54:58;;;;;;;;;;;12.90;99.90;13.20;99171.00;;;;334720;29;94074;-91
2023/04/23 00:55:09;;;;;;;;;;;12.90;99.90;13.30;99162.00;;;;335650;29;82480;-92
2023/04/23 00:55:21;;;;;;;;;;;12.90;99.90;13.20;99168.00;;;;332330;29;94302;-92
2023/04/23 00:55:33;;;;;;;;;;;12.90;99.90;13.20;99167.00;;;;334379;29;82373;-92
2023/04/23 00:55:45;;;;;;;;;;;12.90;99.90;13.30;99169.00;;;;331969;29;95538;-91
2023/04/23 00:55:57;;;;;;;;;;;12.90;99.90;13.40;99163.00;;;;332943;29;83147;-92
2023/04/23 00:56:09;;;;;;;;;;;12.90;99.90;13.30;99162.00;;;;333568;29;96590;-92
2023/04/23 00:56:21;;;;;;;;;;;12.90;99.90;13.30;99161.00;;;;334183;29;82345;-92
2023/04/23 00:56:34;;;;;;;;;;;12.90;99.90;13.40;99155.00;;;;332253;29;92236;-92
2023/04/23 00:56:46;;;;;;;;;;;12.90;99.90;13.40;99167.00;;;;333049;29;82477;-92
2023/04/23 00:56:58;;;;;;;;;;;12.90;99.90;13.40;99152.00;;;;333406;29;95757;-92
2023/04/23 00:57:10;;;;;;;;;;;13.00;99.90;13.30;99158.00;;;;334212;29;83547;-92
2023/04/23 00:57:22;;;;;;;;;;;13.00;99.90;13.30;99156.00;;;;334571;29;95726;-92
2023/04/23 00:57:35;;;;;;;;;;;13.00;99.90;13.30;99163.00;;;;336733;28;82491;-92
2023/04/23 00:57:47;;;;;;;;;;;13.00;99.90;13.30;99154.00;;;;333325;29;95549;-92
2023/04/23 00:57:59;;;;;;;;;;;13.00;99.90;13.30;99156.00;;;;336718;28;83487;-92
2023/04/23 00:58:11;;;;;;;;;;;13.00;99.90;13.30;99161.00;;;;336010;28;95560;-91
2023/04/23 00:58:23;;;;;;;;;;;13.00;99.90;13.30;99164.00;;;;335576;29;83361;-92
2023/04/23 00:58:35;;;;;;;;;;;13.00;99.90;13.20;99156.00;;;;333298;29;95233;-92
2023/04/23 00:58:46;;;;;;;;;;;13.00;99.90;13.30;99157.00;;;;336747;28;83494;-92
2023/04/23 00:58:58;;;;;;;;;;;13.00;99.90;13.40;99161.00;;;;333509;29;92719;-92
2023/04/23 00:59:10;;;;;;;;;;;13.00;99.90;13.40;99158.00;;;;334109;28;83561;-92
2023/04/23 00:59:24;;;;;;;;;;;13.00;99.90;13.50;99147.00;;;;334701;29;94639;-92
2023/04/23 00:59:36;;;;;;;;;;;13.00;99.90;13.60;99156.00;;;;335626;29;82540;-92
2023/04/23 00:59:48;;;;;;;;;;;13.00;99.90;13.50;99160.00;;;;334755;29;94216;-92
2023/04/23 00:59:59;;;;;;;;;;;13.10;99.90;13.50;99150.00;;;;335442;28;82590;-92
2023/04/23 01:00:12;;;;;;;;;;;13.10;99.90;13.40;99153.00;;;;334601;29;96385;-92
2023/04/23 01:00:25;;;;;;;;;;;13.00;99.90;13.40;99145.00;;;;336747;28;83561;-92